WetterOnline ( https://www.wetteronline.de )

Wetter aktuell Fichtelberg

Aktuelles Wetter: Wunsiedel-Schönbrunn (622m)

6-stündlich | Neueste Meldungen
Ortszeit Temperatur Wetter
So, 12.07. 2:00 8.7° C fast wolkenlos
Sa, 11.07. 20:00 15.1° C wolkenlos
Sa, 11.07. 14:00 15.4° C leicht bewölkt
Sa, 11.07. 8:00 11.7° C bewölkt
Sa, 11.07. 2:00 12.6° C bewölkt
Fr, 10.07. 20:00 18.3° C bedeckt
Fr, 10.07. 14:00 25.5° C leicht bewölkt
Fr, 10.07. 8:00 18.2° C leicht bewölkt
Ortszeit Temperatur Wetter
So, 12.07. 3:00 8.6° C wolkenlos
So, 12.07. 2:30 9.3° C wolkenlos
So, 12.07. 2:20 9.3° C wolkenlos
So, 12.07. 2:10 8.9° C fast wolkenlos
So, 12.07. 2:00 8.7° C fast wolkenlos
So, 12.07. 1:50 8.7° C fast wolkenlos
So, 12.07. 1:30 9.2° C wolkenlos
So, 12.07. 1:00 10.0° C wolkenlos
So, 12.07. 0:30 9.5° C wolkig
So, 12.07. 0:00 10.8° C leicht bewölkt
Sa, 11.07. 23:30 10.5° C wolkenlos
Ortszeit Relative Feuchte Sichtweite
So, 12.07. 2:00 76% 65 km
Sa, 11.07. 20:00 49% >70 km
Sa, 11.07. 14:00 56% 55 km
Sa, 11.07. 8:00 82% 55 km
Sa, 11.07. 2:00 80% 65 km
Fr, 10.07. 20:00 64% >70 km
Fr, 10.07. 14:00 50% 50 km
Fr, 10.07. 8:00 70% 65 km
Ortszeit Relative Feuchte Sichtweite
So, 12.07. 3:00 76% 65 km
So, 12.07. 2:30 74% >70 km
So, 12.07. 2:20 74% -
So, 12.07. 2:10 77% -
So, 12.07. 2:00 76% 65 km
So, 12.07. 1:50 76% -
So, 12.07. 1:30 73% >70 km
So, 12.07. 1:00 71% >70 km
So, 12.07. 0:30 72% >70 km
So, 12.07. 0:00 66% >70 km
Sa, 11.07. 23:30 69% >70 km
Ortszeit Niederschlagsmenge Niederschlagsart
So, 12.07. 2:00 0.0 l/m2 in 6 Std. -
Sa, 11.07. 20:00 0.0 l/m2 in 12 Std. -
Sa, 11.07. 14:00 0.0 l/m2 in 6 Std. -
Sa, 11.07. 8:00 0.1 l/m2 in 12 Std. Regen
Sa, 11.07. 2:00 0.1 l/m2 in 6 Std. Regen
Fr, 10.07. 20:00 0.0 l/m2 in 12 Std. -
Fr, 10.07. 14:00 0.1 l/m2 in 6 Std. -
Fr, 10.07. 8:00 0.0 l/m2 in 12 Std. -
Ortszeit Niederschlagsmenge Niederschlagsart
So, 12.07. 3:00 keine Meldung -
So, 12.07. 2:30 0.0 l/m2 in 1 Std. -
So, 12.07. 2:20 keine Meldung -
So, 12.07. 2:10 keine Meldung -
So, 12.07. 2:00 0.0 l/m2 in 1 Std. -
So, 12.07. 1:50 keine Meldung -
So, 12.07. 1:30 0.0 l/m2 in 1 Std. -
So, 12.07. 1:00 0.0 l/m2 in 1 Std. -
So, 12.07. 0:30 0.0 l/m2 in 1 Std. -
So, 12.07. 0:00 0.0 l/m2 in 1 Std. -
Sa, 11.07. 23:30 0.0 l/m2 in 1 Std. -
Ortszeit Stärke Spitze Richtung
km/h Bft. km/h Grad Sektor
So, 12.07. 2:00 7 2 22 290° W
Sa, 11.07. 20:00 18 3 36 350° N
Sa, 11.07. 14:00 7 2 29 320° NW
Sa, 11.07. 8:00 11 2 22 20° N
Sa, 11.07. 2:00 7 2 36 360° N
Fr, 10.07. 20:00 20 4 59 300° NW
Fr, 10.07. 14:00 25 4 50 260° W
Fr, 10.07. 8:00 9 2 20 250° W
Ortszeit Stärke Spitze Richtung
km/h Bft. km/h Grad Sektor
So, 12.07. 3:00 6 1 7 300° NW
So, 12.07. 2:30 4 1 7 270° W
So, 12.07. 2:20 4 1 - 270° W
So, 12.07. 2:10 6 1 - 270° W
So, 12.07. 2:00 7 2 11 290° W
So, 12.07. 1:50 7 2 - 290° W
So, 12.07. 1:30 4 1 7 260° W
So, 12.07. 1:00 4 1 7 230° SW
So, 12.07. 0:30 4 1 7 300° NW
So, 12.07. 0:00 4 1 4 340° N
Sa, 11.07. 23:30 2 1 6 340° N
Ortszeit Untergrenze Bedeckung Gattung
total tief tief mittel hoch
So, 12.07. 2:00 2100 m 1/8 1/8 - - -
Sa, 11.07. 20:00 - 0/8 0/8 - - -
Sa, 11.07. 14:00 2100 m 3/8 5/8 - - -
Sa, 11.07. 8:00 450 m 8/8 6/8 - - -
Sa, 11.07. 2:00 2100 m 8/8 7/8 - - -
Fr, 10.07. 20:00 3900 m 8/8 8/8 - - -
Fr, 10.07. 14:00 1500 m 4/8 1/8 - - -
Fr, 10.07. 8:00 3300 m 3/8 3/8 - - -
Ortszeit Bedeckungsgrad in Achtel und Wolkenuntergrenze
So, 12.07. 3:00 keine Wolken
So, 12.07. 2:30 keine Wolken
So, 12.07. 2:20 keine Wolken
So, 12.07. 2:10 1(2100m)
So, 12.07. 2:00 1(2100m)
So, 12.07. 1:50 1(2100m)
So, 12.07. 1:30 keine Wolken
So, 12.07. 1:00 keine Wolken
So, 12.07. 0:30 6(2400m)
So, 12.07. 0:00 4(2400m)
Sa, 11.07. 23:30 keine Wolken
Ortszeit Luftdruck NN (hPa) Tendenz (hPa in 3 Std.)
So, 12.07. 2:00 1027 + 0,2
Sa, 11.07. 20:00 1023 + 0,7
Sa, 11.07. 14:00 1022 + 0,5
Sa, 11.07. 8:00 1021 + 1,3
Sa, 11.07. 2:00 1019 + 1,6
Fr, 10.07. 20:00 1014 + 1,8
Fr, 10.07. 14:00 1008 0,0
Fr, 10.07. 8:00 1011 - 0,7
Ortszeit Luftdruck NN (hPa) Tendenz (hPa in 3 Std.)
So, 12.07. 3:00 1027 - 0,2
So, 12.07. 2:30 1026 0,0
So, 12.07. 2:20 1026 keine Meldung
So, 12.07. 2:10 1027 keine Meldung
So, 12.07. 2:00 1027 + 0,2
So, 12.07. 1:50 1027 keine Meldung
So, 12.07. 1:30 1027 + 0,4
So, 12.07. 1:00 1026 + 0,7
So, 12.07. 0:30 1026 + 0,9
So, 12.07. 0:00 1026 + 1,3
Sa, 11.07. 23:30 1026 + 1,3
Ortszeit Schneehöhe (cm)
So, 12.07. 2:00 -
Sa, 11.07. 20:00 -
Sa, 11.07. 14:00 -
Sa, 11.07. 8:00 -
Sa, 11.07. 2:00 -
Fr, 10.07. 20:00 -
Fr, 10.07. 14:00 -
Fr, 10.07. 8:00 -
Ortszeit Schneehöhe (cm)
So, 12.07. 3:00 -
So, 12.07. 2:30 -
So, 12.07. 2:20 -
So, 12.07. 2:10 -
So, 12.07. 2:00 -
So, 12.07. 1:50 -
So, 12.07. 1:30 -
So, 12.07. 1:00 -
So, 12.07. 0:30 -
So, 12.07. 0:00 -
Sa, 11.07. 23:30 -
Link zu dieser Seite / Seite empfehlen

Das Wetter in ...